Time;durP1;ratioP1;P1;durP2;ratioP2;P2;SDS_P1;SDS_P2;PMS_P1;PMS_P2;Temp;Humidity;BMP_temperature;BMP_pressure;BME280_temperature;BME280_humidity;BME280_pressure;Samples;Min_cycle;Max_cycle;Signal;HPM_P1;HPM_P2
2023/03/22 00:01:33;;;;;;;22.30;3.72;;;;;;;;;;4972684;28;20069;-69
2023/03/22 00:03:59;;;;;;;24.67;3.30;;;;;;;;;;4996407;28;20128;-67
2023/03/22 00:06:25;;;;;;;16.25;2.97;;;;;;;;;;4997529;28;20056;-68
2023/03/22 00:08:51;;;;;;;17.40;3.20;;;;;;;;;;4996855;28;20045;-69
2023/03/22 00:11:18;;;;;;;20.65;2.80;;;;;;;;;;4972221;28;20046;-69
2023/03/22 00:13:45;;;;;;;21.88;3.40;;;;;;;;;;4997146;28;20038;-68
2023/03/22 00:16:11;;;;;;;19.08;3.20;;;;;;;;;;4996883;28;20093;-68
2023/03/22 00:18:36;;;;;;;19.00;3.47;;;;;;;;;;4996304;28;20190;-69
2023/03/22 00:21:02;;;;;;;16.52;3.33;;;;;;;;;;4972498;28;20041;-69
2023/03/22 00:23:30;;;;;;;16.33;2.72;;;;;;;;;;4996677;28;20173;-69
2023/03/22 00:25:56;;;;;;;18.10;3.63;;;;;;;;;;4997233;28;20214;-69
2023/03/22 00:28:21;;;;;;;17.33;3.45;;;;;;;;;;4978164;28;20049;-68
2023/03/22 00:31:05;;;;;;;15.57;2.60;;;;;;;;;;4996754;28;20148;-69
2023/03/22 00:33:31;;;;;;;17.05;3.35;;;;;;;;;;4996652;28;20042;-69
2023/03/22 00:35:57;;;;;;;16.80;3.50;;;;;;;;;;4972766;28;20092;-69
2023/03/22 00:38:23;;;;;;;18.63;3.13;;;;;;;;;;4995920;28;20044;-69
2023/03/22 00:40:48;;;;;;;21.88;6.70;;;;;;;;;;4980027;28;20037;-69
2023/03/22 00:43:14;;;;;;;21.63;6.03;;;;;;;;;;4995134;28;20073;-71
2023/03/22 00:45:43;;;;;;;25.23;7.35;;;;;;;;;;4996695;28;20056;-69
2023/03/22 00:48:10;;;;;;;20.50;6.15;;;;;;;;;;4996935;28;20084;-69
2023/03/22 00:50:37;;;;;;;22.52;5.95;;;;;;;;;;5010817;28;20040;-69
2023/03/22 00:53:02;;;;;;;27.50;7.00;;;;;;;;;;4996798;28;20128;-69
2023/03/22 00:55:28;;;;;;;20.80;6.47;;;;;;;;;;4996159;28;20060;-68
2023/03/22 00:57:53;;;;;;;23.85;6.55;;;;;;;;;;4996494;28;20758;-69
2023/03/22 01:00:18;;;;;;;20.75;5.60;;;;;;;;;;4996376;28;20117;-68
2023/03/22 01:02:44;;;;;;;20.70;6.95;;;;;;;;;;4996838;28;20045;-68
2023/03/22 01:05:14;;;;;;;24.55;7.43;;;;;;;;;;4983668;28;20064;-68
2023/03/22 01:07:40;;;;;;;31.25;6.88;;;;;;;;;;4995629;28;20053;-68
2023/03/22 01:10:06;;;;;;;32.28;6.80;;;;;;;;;;4985630;28;20041;-69
2023/03/22 01:12:31;;;;;;;33.38;6.85;;;;;;;;;;5000120;28;20037;-69
2023/03/22 01:14:56;;;;;;;24.27;5.57;;;;;;;;;;4999431;28;20040;-69
2023/03/22 01:17:21;;;;;;;28.75;7.35;;;;;;;;;;4998898;28;20744;-68
2023/03/22 01:19:47;;;;;;;31.38;7.13;;;;;;;;;;4999434;28;20474;-70
2023/03/22 01:22:12;;;;;;;37.70;7.63;;;;;;;;;;4999544;28;20037;-70
2023/03/22 01:24:40;;;;;;;29.88;6.43;;;;;;;;;;5014784;28;20101;-68
2023/03/22 01:27:06;;;;;;;34.05;7.47;;;;;;;;;;4987218;28;20068;-69
2023/03/22 01:29:34;;;;;;;24.00;6.93;;;;;;;;;;4999640;28;20052;-69
2023/03/22 01:31:59;;;;;;;26.20;6.95;;;;;;;;;;5000490;28;20041;-69
2023/03/22 01:34:25;;;;;;;24.98;6.55;;;;;;;;;;5000085;28;20168;-70
2023/03/22 01:36:50;;;;;;;23.77;5.05;;;;;;;;;;4999203;28;20176;-70
2023/03/22 01:39:16;;;;;;;26.13;6.28;;;;;;;;;;4985972;28;20386;-68
2023/03/22 01:41:41;;;;;;;22.95;7.85;;;;;;;;;;4998680;28;20065;-69
2023/03/22 01:44:09;;;;;;;26.30;6.90;;;;;;;;;;4990758;28;21063;-68
2023/03/22 01:46:35;;;;;;;20.60;5.25;;;;;;;;;;4999777;28;20065;-68
2023/03/22 01:49:06;;;;;;;17.67;5.90;;;;;;;;;;4999092;28;22277;-68
2023/03/22 01:51:31;;;;;;;17.25;5.35;;;;;;;;;;4999441;28;20831;-70
2023/03/22 01:53:59;;;;;;;24.67;5.95;;;;;;;;;;4999118;28;20037;-68
2023/03/22 01:56:26;;;;;;;24.00;8.35;;;;;;;;;;4963279;28;20034;-69
2023/03/22 01:58:53;;;;;;;32.80;8.20;;;;;;;;;;4997821;28;20099;-70
2023/03/22 02:01:18;;;;;;;18.02;5.22;;;;;;;;;;4999757;28;20037;-69
2023/03/22 02:03:46;;;;;;;26.05;6.15;;;;;;;;;;4991433;28;20044;-68
2023/03/22 02:06:12;;;;;;;25.10;7.15;;;;;;;;;;4974500;28;20041;-69
2023/03/22 02:08:39;;;;;;;26.08;6.45;;;;;;;;;;4989921;28;21056;-68
2023/03/22 02:11:04;;;;;;;23.23;6.25;;;;;;;;;;4999651;28;20146;-69
2023/03/22 02:13:37;;;;;;;18.45;5.45;;;;;;;;;;4985777;28;20113;-68
2023/03/22 02:16:14;;;;;;;23.08;5.82;;;;;;;;;;4998466;28;20048;-69
2023/03/22 02:19:21;;;;;;;21.58;6.25;;;;;;;;;;4985975;28;20079;-68
2023/03/22 02:22:15;;;;;;;20.08;6.97;;;;;;;;;;4891685;29;20036;-69
2023/03/22 02:24:54;;;;;;;27.55;8.20;;;;;;;;;;4857307;29;20174;-70
2023/03/22 02:27:34;;;;;;;22.05;7.63;;;;;;;;;;4977300;28;20090;-69
2023/03/22 02:30:12;;;;;;;24.90;7.03;;;;;;;;;;4997822;28;20037;-69
2023/03/22 02:33:01;;;;;;;27.23;6.55;;;;;;;;;;4997689;28;20694;-69
2023/03/22 02:35:33;;;;;;;15.60;5.18;;;;;;;;;;4996830;28;20030;-70
2023/03/22 02:38:15;;;;;;;19.80;5.53;;;;;;;;;;4998262;28;20122;-69
2023/03/22 02:41:13;;;;;;;24.98;6.78;;;;;;;;;;4967828;28;20125;-68
2023/03/22 02:43:38;;;;;;;21.02;5.50;;;;;;;;;;4955002;28;20783;-68
2023/03/22 02:46:14;;;;;;;27.80;8.15;;;;;;;;;;4997260;28;20033;-69
2023/03/22 02:48:49;;;;;;;20.50;6.30;;;;;;;;;;4990039;28;20065;-69
2023/03/22 02:51:23;;;;;;;20.35;5.90;;;;;;;;;;4998748;28;20045;-69
2023/03/22 02:53:51;;;;;;;18.85;6.43;;;;;;;;;;4997581;28;20518;-69
2023/03/22 02:56:19;;;;;;;22.55;7.20;;;;;;;;;;4998314;28;20045;-69
2023/03/22 02:58:50;;;;;;;23.30;7.50;;;;;;;;;;4998087;28;20049;-69
2023/03/22 03:01:20;;;;;;;24.55;8.00;;;;;;;;;;4998003;28;20045;-69
2023/03/22 03:03:47;;;;;;;25.63;9.90;;;;;;;;;;4997717;28;20061;-68
2023/03/22 03:06:16;;;;;;;20.33;6.90;;;;;;;;;;4996196;28;20041;-68
2023/03/22 03:08:43;;;;;;;21.52;6.47;;;;;;;;;;4997414;28;20099;-69
2023/03/22 03:11:08;;;;;;;18.77;6.60;;;;;;;;;;4972621;28;20042;-68
2023/03/22 03:13:34;;;;;;;21.40;7.47;;;;;;;;;;4984991;28;20072;-70
2023/03/22 03:16:00;;;;;;;25.73;8.20;;;;;;;;;;4997855;28;20126;-68
2023/03/22 03:18:28;;;;;;;23.27;7.30;;;;;;;;;;4996813;28;20126;-68
2023/03/22 03:21:15;;;;;;;25.77;8.15;;;;;;;;;;4997606;28;20060;-68
2023/03/22 03:24:02;;;;;;;22.75;8.02;;;;;;;;;;4997771;28;20045;-69
2023/03/22 03:26:42;;;;;;;26.33;8.50;;;;;;;;;;4983875;28;20095;-68
2023/03/22 03:29:12;;;;;;;22.02;7.63;;;;;;;;;;4996311;28;20511;-70
2023/03/22 03:31:38;;;;;;;21.73;8.10;;;;;;;;;;4997256;28;21724;-69
2023/03/22 03:34:11;;;;;;;18.95;8.27;;;;;;;;;;4997269;28;20406;-69
2023/03/22 03:36:38;;;;;;;26.47;8.87;;;;;;;;;;5011679;28;20038;-68
2023/03/22 03:39:06;;;;;;;24.40;8.75;;;;;;;;;;4996355;28;20038;-68
2023/03/22 03:41:32;;;;;;;29.60;9.70;;;;;;;;;;4979518;28;20061;-70
2023/03/22 03:43:58;;;;;;;22.90;9.40;;;;;;;;;;4997640;28;20033;-69
2023/03/22 03:46:23;;;;;;;21.35;8.25;;;;;;;;;;4998267;28;20061;-69
2023/03/22 03:48:52;;;;;;;20.83;8.05;;;;;;;;;;4997032;28;20064;-68
2023/03/22 03:51:17;;;;;;;20.35;7.32;;;;;;;;;;4998129;28;20447;-68
2023/03/22 03:53:45;;;;;;;34.08;11.07;;;;;;;;;;4996426;28;20034;-68
2023/03/22 03:56:15;;;;;;;25.15;8.95;;;;;;;;;;4997273;28;20094;-67
2023/03/22 03:58:43;;;;;;;28.45;8.77;;;;;;;;;;4996457;28;20042;-69
2023/03/22 04:01:08;;;;;;;19.83;8.02;;;;;;;;;;4997271;28;20060;-69
2023/03/22 04:03:33;;;;;;;21.63;8.70;;;;;;;;;;4997615;28;20164;-68
2023/03/22 04:05:58;;;;;;;26.88;9.30;;;;;;;;;;4982787;28;20060;-65
2023/03/22 04:08:24;;;;;;;21.40;7.97;;;;;;;;;;4997396;28;20149;-70
2023/03/22 04:10:55;;;;;;;23.02;7.75;;;;;;;;;;4996547;28;20114;-66
2023/03/22 04:13:20;;;;;;;22.10;8.85;;;;;;;;;;4997455;28;22260;-69
2023/03/22 04:15:46;;;;;;;22.77;7.78;;;;;;;;;;4989849;28;20045;-68
2023/03/22 04:18:11;;;;;;;21.45;8.65;;;;;;;;;;4997598;28;20502;-68
2023/03/22 04:20:40;;;;;;;22.35;7.45;;;;;;;;;;4996831;28;20045;-69
2023/03/22 04:23:06;;;;;;;25.00;8.18;;;;;;;;;;4997181;28;20068;-68
2023/03/22 04:25:32;;;;;;;27.48;9.05;;;;;;;;;;4998233;28;20041;-68
2023/03/22 04:27:59;;;;;;;22.17;8.07;;;;;;;;;;4996563;28;20052;-67
2023/03/22 04:30:26;;;;;;;21.08;7.40;;;;;;;;;;4997075;28;22238;-69
2023/03/22 04:32:51;;;;;;;18.17;6.90;;;;;;;;;;4996794;28;20183;-70
2023/03/22 04:35:18;;;;;;;24.63;9.50;;;;;;;;;;4997325;28;20771;-69
2023/03/22 04:37:44;;;;;;;20.45;8.48;;;;;;;;;;4996629;28;20105;-68
2023/03/22 04:40:15;;;;;;;24.73;8.60;;;;;;;;;;5012185;28;20125;-69
2023/03/22 04:42:42;;;;;;;19.15;8.05;;;;;;;;;;4996786;28;20075;-67
2023/03/22 04:45:08;;;;;;;21.77;8.98;;;;;;;;;;4998830;28;20033;-65
2023/03/22 04:47:33;;;;;;;16.42;6.95;;;;;;;;;;4982009;28;20033;-70
2023/03/22 04:49:59;;;;;;;22.38;7.90;;;;;;;;;;4992823;28;20040;-66
2023/03/22 04:52:24;;;;;;;21.33;9.00;;;;;;;;;;4982047;28;20057;-69
2023/03/22 04:54:49;;;;;;;23.98;8.48;;;;;;;;;;5000888;28;22708;-70
2023/03/22 04:57:15;;;;;;;20.15;7.20;;;;;;;;;;5016091;28;20049;-68
2023/03/22 04:59:40;;;;;;;23.75;8.13;;;;;;;;;;5000509;28;20061;-68
2023/03/22 05:02:05;;;;;;;22.23;8.52;;;;;;;;;;5013816;28;20041;-69
2023/03/22 05:04:31;;;;;;;18.85;7.72;;;;;;;;;;4975741;28;20037;-69
2023/03/22 05:06:56;;;;;;;23.83;7.32;;;;;;;;;;4998490;28;20199;-68
2023/03/22 05:09:21;;;;;;;15.77;7.53;;;;;;;;;;5015014;28;20239;-68
2023/03/22 05:11:46;;;;;;;19.88;7.05;;;;;;;;;;4975902;28;20061;-69
2023/03/22 05:14:12;;;;;;;21.27;8.15;;;;;;;;;;4976242;28;21660;-69
2023/03/22 05:16:40;;;;;;;20.67;7.57;;;;;;;;;;5014523;28;20038;-68
2023/03/22 05:19:14;;;;;;;25.13;8.40;;;;;;;;;;4992611;28;20042;-69
2023/03/22 05:21:42;;;;;;;17.65;7.78;;;;;;;;;;4986220;28;22201;-67
2023/03/22 05:24:08;;;;;;;22.50;7.57;;;;;;;;;;4981253;28;20046;-68
2023/03/22 05:26:36;;;;;;;24.10;8.25;;;;;;;;;;5000360;28;20053;-68
2023/03/22 05:29:04;;;;;;;27.30;9.05;;;;;;;;;;4999809;28;20052;-69
2023/03/22 05:31:33;;;;;;;26.00;8.38;;;;;;;;;;4983468;28;20033;-69
2023/03/22 05:33:59;;;;;;;24.65;8.30;;;;;;;;;;4996880;28;20401;-69
2023/03/22 05:36:28;;;;;;;17.98;6.35;;;;;;;;;;4970639;28;20186;-68
2023/03/22 05:38:56;;;;;;;17.52;7.63;;;;;;;;;;4999144;28;20049;-69
2023/03/22 05:41:24;;;;;;;19.90;6.93;;;;;;;;;;4999302;28;20038;-69
2023/03/22 05:43:49;;;;;;;24.08;7.28;;;;;;;;;;4998909;28;20050;-69
2023/03/22 05:46:15;;;;;;;25.50;7.75;;;;;;;;;;5000054;28;20103;-69
2023/03/22 05:48:40;;;;;;;17.17;6.70;;;;;;;;;;4998460;28;20072;-67
2023/03/22 05:51:07;;;;;;;16.25;5.93;;;;;;;;;;4998748;28;20063;-69
2023/03/22 05:53:32;;;;;;;19.73;6.80;;;;;;;;;;4972458;28;20120;-70
2023/03/22 05:56:00;;;;;;;20.20;6.40;;;;;;;;;;4970575;28;20037;-69
2023/03/22 05:58:29;;;;;;;18.58;5.70;;;;;;;;;;4998315;28;20041;-68
2023/03/22 06:01:00;;;;;;;16.85;6.40;;;;;;;;;;4999850;28;20053;-68
2023/03/22 06:03:26;;;;;;;16.58;6.38;;;;;;;;;;4974854;28;20042;-70
2023/03/22 06:05:54;;;;;;;20.27;7.20;;;;;;;;;;4998590;28;20409;-68
2023/03/22 06:08:20;;;;;;;17.83;5.93;;;;;;;;;;4980497;28;20057;-69
2023/03/22 06:10:52;;;;;;;18.40;6.28;;;;;;;;;;4999462;28;20046;-67
2023/03/22 06:13:18;;;;;;;17.92;6.25;;;;;;;;;;4997565;28;20804;-70
2023/03/22 06:15:44;;;;;;;24.75;7.70;;;;;;;;;;4973910;28;20136;-69
2023/03/22 06:18:09;;;;;;;19.15;6.28;;;;;;;;;;4985548;28;20045;-68
2023/03/22 06:20:34;;;;;;;17.30;5.45;;;;;;;;;;4998465;28;20125;-69
2023/03/22 06:23:00;;;;;;;16.52;6.43;;;;;;;;;;4971907;28;20132;-69
2023/03/22 06:25:25;;;;;;;18.77;5.85;;;;;;;;;;4999778;28;20041;-69
2023/03/22 06:27:51;;;;;;;17.92;5.82;;;;;;;;;;4997525;28;20060;-69
2023/03/22 06:30:17;;;;;;;18.27;5.20;;;;;;;;;;4997996;28;20165;-68
2023/03/22 06:32:43;;;;;;;19.85;6.10;;;;;;;;;;4996853;28;20088;-68
2023/03/22 06:35:10;;;;;;;22.83;6.35;;;;;;;;;;5013946;28;20029;-69
2023/03/22 06:37:36;;;;;;;19.15;6.50;;;;;;;;;;4980303;28;22137;-69
2023/03/22 06:40:03;;;;;;;15.98;5.53;;;;;;;;;;4997784;28;20380;-67
2023/03/22 06:42:29;;;;;;;19.88;5.93;;;;;;;;;;4996168;28;20049;-68
2023/03/22 06:44:55;;;;;;;24.52;6.47;;;;;;;;;;4989197;28;20040;-67
2023/03/22 06:47:20;;;;;;;23.38;6.15;;;;;;;;;;4998715;28;20033;-69
2023/03/22 06:49:46;;;;;;;22.67;6.78;;;;;;;;;;4997730;28;20049;-67
2023/03/22 06:52:11;;;;;;;19.23;5.38;;;;;;;;;;4980772;28;20045;-68
2023/03/22 06:54:36;;;;;;;20.67;6.47;;;;;;;;;;4998337;28;20693;-69
2023/03/22 06:57:04;;;;;;;22.77;7.50;;;;;;;;;;4982191;28;20049;-68
2023/03/22 06:59:29;;;;;;;17.23;5.47;;;;;;;;;;4996533;28;20075;-69
2023/03/22 07:01:55;;;;;;;18.95;5.07;;;;;;;;;;4996968;28;20121;-68
2023/03/22 07:04:20;;;;;;;25.10;6.40;;;;;;;;;;4996040;28;20046;-69
2023/03/22 07:06:45;;;;;;;21.70;5.57;;;;;;;;;;4974142;28;20132;-70
2023/03/22 07:09:11;;;;;;;24.65;6.07;;;;;;;;;;4982874;28;20041;-67
2023/03/22 07:11:36;;;;;;;19.50;5.50;;;;;;;;;;4984125;28;20049;-70
2023/03/22 07:14:01;;;;;;;20.58;6.40;;;;;;;;;;4973418;28;20046;-65
2023/03/22 07:16:29;;;;;;;19.15;5.88;;;;;;;;;;4990433;28;20048;-68
2023/03/22 07:18:56;;;;;;;21.25;5.50;;;;;;;;;;4997343;28;20060;-69
2023/03/22 07:21:21;;;;;;;26.95;6.00;;;;;;;;;;4998798;28;20041;-69
2023/03/22 07:23:49;;;;;;;21.63;5.30;;;;;;;;;;4996177;28;20121;-68
2023/03/22 07:26:14;;;;;;;20.88;5.45;;;;;;;;;;4990245;28;20053;-67
2023/03/22 07:28:43;;;;;;;17.42;4.55;;;;;;;;;;4982388;28;20080;-68
2023/03/22 07:31:10;;;;;;;17.35;5.07;;;;;;;;;;4989785;28;20351;-68
2023/03/22 07:33:36;;;;;;;18.45;5.97;;;;;;;;;;4995338;28;20037;-68
2023/03/22 07:36:01;;;;;;;16.92;4.18;;;;;;;;;;4968564;28;20049;-68
2023/03/22 07:38:26;;;;;;;22.10;5.07;;;;;;;;;;4997349;28;20042;-68
2023/03/22 07:40:53;;;;;;;19.38;4.45;;;;;;;;;;4974341;28;20029;-69
2023/03/22 07:43:21;;;;;;;13.68;4.32;;;;;;;;;;4994414;28;20037;-70
2023/03/22 07:45:50;;;;;;;18.90;4.70;;;;;;;;;;4990278;28;20045;-69
2023/03/22 07:48:19;;;;;;;22.50;6.70;;;;;;;;;;4970558;28;20053;-69
2023/03/22 07:50:44;;;;;;;21.80;5.47;;;;;;;;;;4964812;28;20046;-69
2023/03/22 07:53:10;;;;;;;20.55;4.97;;;;;;;;;;4977080;28;20091;-70
2023/03/22 07:55:36;;;;;;;19.98;5.78;;;;;;;;;;4962954;28;20042;-66
2023/03/22 07:58:01;;;;;;;20.88;6.25;;;;;;;;;;4975904;28;20042;-71
2023/03/22 08:00:26;;;;;;;24.35;6.13;;;;;;;;;;4976463;28;20045;-70
2023/03/22 08:02:52;;;;;;;22.92;5.95;;;;;;;;;;4963412;28;20045;-68
2023/03/22 08:05:17;;;;;;;20.55;5.70;;;;;;;;;;4978262;28;20048;-69
2023/03/22 08:07:42;;;;;;;23.40;6.90;;;;;;;;;;4965073;28;20128;-69
2023/03/22 08:10:08;;;;;;;31.02;6.78;;;;;;;;;;4970113;28;20069;-67
2023/03/22 08:12:33;;;;;;;21.30;6.45;;;;;;;;;;4964634;28;20097;-71
2023/03/22 08:14:58;;;;;;;25.45;5.40;;;;;;;;;;4976634;28;20928;-68
2023/03/22 08:17:24;;;;;;;22.13;4.47;;;;;;;;;;4975975;28;20176;-69
2023/03/22 08:19:50;;;;;;;31.55;6.68;;;;;;;;;;4977069;28;20042;-69
2023/03/22 08:22:15;;;;;;;20.27;5.40;;;;;;;;;;4977758;28;20170;-70
2023/03/22 08:24:41;;;;;;;22.77;5.85;;;;;;;;;;4960602;28;20038;-69
2023/03/22 08:27:06;;;;;;;29.60;5.93;;;;;;;;;;4976147;28;20811;-69
2023/03/22 08:29:32;;;;;;;22.15;5.40;;;;;;;;;;4975118;28;20557;-69
2023/03/22 08:32:01;;;;;;;17.17;5.28;;;;;;;;;;4977377;28;20042;-70
2023/03/22 08:34:27;;;;;;;21.48;5.55;;;;;;;;;;4977947;28;20065;-71
2023/03/22 08:36:52;;;;;;;21.63;5.80;;;;;;;;;;4977260;28;20715;-70
2023/03/22 08:39:17;;;;;;;24.83;6.72;;;;;;;;;;4970234;28;20039;-69
2023/03/22 08:41:42;;;;;;;25.13;5.70;;;;;;;;;;4975216;28;22251;-71
2023/03/22 08:44:08;;;;;;;23.55;5.97;;;;;;;;;;4969812;28;20459;-71
2023/03/22 08:46:33;;;;;;;28.27;5.70;;;;;;;;;;4946559;28;20089;-71
2023/03/22 08:49:01;;;;;;;20.55;6.10;;;;;;;;;;4968054;28;20059;-69
2023/03/22 08:51:30;;;;;;;25.77;6.25;;;;;;;;;;4996570;28;20502;-70
2023/03/22 08:53:57;;;;;;;30.10;7.00;;;;;;;;;;4996757;28;20033;-70
2023/03/22 08:56:23;;;;;;;21.63;6.95;;;;;;;;;;4973403;28;20042;-68
2023/03/22 08:58:51;;;;;;;21.98;6.70;;;;;;;;;;4995419;28;20099;-69
2023/03/22 09:01:16;;;;;;;23.10;7.68;;;;;;;;;;4988848;28;20056;-70
2023/03/22 09:03:42;;;;;;;32.47;7.47;;;;;;;;;;4996338;28;20037;-68
2023/03/22 09:06:07;;;;;;;26.83;6.82;;;;;;;;;;4984176;28;20108;-69
2023/03/22 09:08:37;;;;;;;27.92;6.95;;;;;;;;;;4995652;28;20107;-69
2023/03/22 09:11:02;;;;;;;21.25;6.50;;;;;;;;;;4994245;28;20041;-69
2023/03/22 09:13:29;;;;;;;22.63;7.05;;;;;;;;;;4982443;28;20045;-71
2023/03/22 09:15:55;;;;;;;22.83;6.72;;;;;;;;;;4995453;28;20655;-71
2023/03/22 09:18:21;;;;;;;22.65;6.72;;;;;;;;;;4995740;28;20120;-70
2023/03/22 09:20:46;;;;;;;25.42;7.10;;;;;;;;;;4994979;28;20041;-70
2023/03/22 09:23:13;;;;;;;26.20;7.55;;;;;;;;;;4996091;28;20407;-70
2023/03/22 09:25:41;;;;;;;21.20;7.70;;;;;;;;;;4978568;28;20489;-69
2023/03/22 09:28:07;;;;;;;26.10;7.13;;;;;;;;;;4994793;28;20072;-71
2023/03/22 09:30:32;;;;;;;20.35;7.53;;;;;;;;;;4998192;28;20132;-69
2023/03/22 09:32:57;;;;;;;29.02;7.78;;;;;;;;;;5014547;28;20045;-68
2023/03/22 09:35:22;;;;;;;38.28;10.38;;;;;;;;;;4981717;28;20952;-69
2023/03/22 09:37:52;;;;;;;29.95;8.57;;;;;;;;;;4954812;28;20045;-68
2023/03/22 09:40:20;;;;;;;26.30;7.93;;;;;;;;;;5013485;28;20095;-71
2023/03/22 09:42:48;;;;;;;22.63;6.25;;;;;;;;;;4978621;28;20278;-70
2023/03/22 09:45:17;;;;;;;22.10;5.40;;;;;;;;;;4999495;28;20651;-69
2023/03/22 09:47:45;;;;;;;23.17;6.88;;;;;;;;;;4976020;28;20076;-68
2023/03/22 09:50:21;;;;;;;26.15;7.43;;;;;;;;;;4991625;28;20080;-70
2023/03/22 09:52:47;;;;;;;22.58;8.32;;;;;;;;;;4997492;28;20079;-70
2023/03/22 09:55:28;;;;;;;23.75;8.43;;;;;;;;;;5000369;28;20044;-70
2023/03/22 09:58:16;;;;;;;26.73;8.63;;;;;;;;;;4999224;28;20034;-69
2023/03/22 10:00:44;;;;;;;25.88;7.68;;;;;;;;;;4992891;28;20554;-68
2023/03/22 10:03:37;;;;;;;30.65;8.80;;;;;;;;;;4996927;28;20105;-69
2023/03/22 10:06:17;;;;;;;28.65;7.43;;;;;;;;;;4998570;28;20437;-70
2023/03/22 10:08:45;;;;;;;27.42;9.18;;;;;;;;;;4981497;28;20045;-69
2023/03/22 10:11:20;;;;;;;28.13;7.63;;;;;;;;;;4984433;28;20083;-69
2023/03/22 10:13:49;;;;;;;21.60;7.05;;;;;;;;;;4998912;28;20034;-70
2023/03/22 10:16:21;;;;;;;27.85;7.75;;;;;;;;;;4997351;28;20349;-69
2023/03/22 10:18:49;;;;;;;29.20;8.00;;;;;;;;;;4996934;28;20037;-69
2023/03/22 10:21:16;;;;;;;27.13;6.93;;;;;;;;;;4996824;28;20135;-69
2023/03/22 10:23:46;;;;;;;19.70;6.18;;;;;;;;;;4980572;28;20033;-69
2023/03/22 10:26:18;;;;;;;18.35;6.88;;;;;;;;;;4998292;28;20109;-68
2023/03/22 10:28:45;;;;;;;29.50;7.85;;;;;;;;;;4996041;28;20045;-69
2023/03/22 10:31:20;;;;;;;19.75;6.88;;;;;;;;;;4995085;28;20040;-70
2023/03/22 10:33:51;;;;;;;25.63;7.90;;;;;;;;;;4978294;28;20557;-70
2023/03/22 10:36:18;;;;;;;30.85;8.07;;;;;;;;;;4972003;28;20037;-69
2023/03/22 10:38:51;;;;;;;22.52;7.47;;;;;;;;;;4995388;28;20037;-68
2023/03/22 10:41:20;;;;;;;25.10;9.02;;;;;;;;;;4996319;28;20688;-68
2023/03/22 10:43:51;;;;;;;24.52;7.35;;;;;;;;;;4980184;28;20042;-69
2023/03/22 10:46:24;;;;;;;18.67;7.53;;;;;;;;;;4994523;28;20496;-70
2023/03/22 10:48:53;;;;;;;23.90;7.93;;;;;;;;;;4994657;28;20058;-68
2023/03/22 10:51:31;;;;;;;27.42;8.45;;;;;;;;;;4982367;28;22038;-67
2023/03/22 10:54:00;;;;;;;25.92;9.30;;;;;;;;;;4995625;28;20041;-68
2023/03/22 10:56:25;;;;;;;23.80;8.45;;;;;;;;;;4996537;28;20045;-68
2023/03/22 10:58:50;;;;;;;19.45;8.18;;;;;;;;;;4996296;28;20456;-69
2023/03/22 11:01:27;;;;;;;22.52;8.27;;;;;;;;;;4973618;28;20136;-69
2023/03/22 11:03:57;;;;;;;17.48;6.30;;;;;;;;;;4997705;28;20038;-69
2023/03/22 11:06:31;;;;;;;22.75;7.13;;;;;;;;;;4994716;28;20034;-69
2023/03/22 11:08:58;;;;;;;19.38;5.45;;;;;;;;;;4996147;28;20495;-68
2023/03/22 11:11:26;;;;;;;18.75;6.50;;;;;;;;;;4988354;28;20053;-68
2023/03/22 11:14:03;;;;;;;14.65;5.68;;;;;;;;;;4982650;28;20095;-69
2023/03/22 11:16:30;;;;;;;18.38;6.03;;;;;;;;;;4995715;28;20136;-70
2023/03/22 11:19:00;;;;;;;14.45;4.85;;;;;;;;;;4996587;28;20149;-69
2023/03/22 11:21:29;;;;;;;21.83;5.97;;;;;;;;;;4971818;28;20065;-69
2023/03/22 11:23:56;;;;;;;14.32;5.45;;;;;;;;;;4995080;28;20062;-68
2023/03/22 11:26:27;;;;;;;13.52;4.82;;;;;;;;;;4996544;28;20478;-67
2023/03/22 11:28:59;;;;;;;14.10;4.55;;;;;;;;;;4994883;28;20068;-69
2023/03/22 11:31:24;;;;;;;18.40;5.40;;;;;;;;;;4973687;28;20045;-69
2023/03/22 11:33:57;;;;;;;22.83;5.47;;;;;;;;;;4995357;28;20045;-69
2023/03/22 11:36:23;;;;;;;15.60;5.35;;;;;;;;;;4995638;28;20037;-68
2023/03/22 11:38:55;;;;;;;17.88;5.70;;;;;;;;;;4997497;28;20043;-70
2023/03/22 11:41:21;;;;;;;;;;;;;;;;;;4995607;28;20053;-67
2023/03/22 11:43:47;;;;;;;15.60;4.50;;;;;;;;;;4980202;28;20000;-69
2023/03/22 11:46:15;;;;;;;18.02;4.93;;;;;;;;;;4983114;28;20287;-69
2023/03/22 11:48:42;;;;;;;18.20;4.70;;;;;;;;;;4995243;28;20132;-69
2023/03/22 11:51:09;;;;;;;25.63;4.47;;;;;;;;;;4992588;28;20041;-69
2023/03/22 11:53:37;;;;;;;14.65;4.30;;;;;;;;;;4980926;28;20049;-69
2023/03/22 11:56:06;;;;;;;18.05;4.30;;;;;;;;;;4993682;28;20395;-68
2023/03/22 11:58:40;;;;;;;29.95;5.45;;;;;;;;;;4995112;28;20044;-68
2023/03/22 12:01:06;;;;;;;16.80;4.43;;;;;;;;;;4990335;28;20029;-69
2023/03/22 12:03:36;;;;;;;17.10;3.72;;;;;;;;;;4994647;28;20049;-69
2023/03/22 12:06:04;;;;;;;22.92;4.82;;;;;;;;;;4993203;28;20264;-68
2023/03/22 12:08:38;;;;;;;14.85;4.00;;;;;;;;;;5009193;28;20058;-68
2023/03/22 12:11:09;;;;;;;17.60;4.18;;;;;;;;;;4992964;28;20044;-69
2023/03/22 12:13:47;;;;;;;18.27;5.10;;;;;;;;;;4993632;28;20356;-70
2023/03/22 12:16:14;;;;;;;20.40;4.68;;;;;;;;;;4977702;28;20085;-70
2023/03/22 12:19:01;;;;;;;19.48;4.88;;;;;;;;;;4993819;28;20041;-69
2023/03/22 12:21:27;;;;;;;19.05;4.78;;;;;;;;;;4994411;28;20223;-70
2023/03/22 12:23:53;;;;;;;16.75;4.10;;;;;;;;;;4991090;28;20034;-69
2023/03/22 12:26:20;;;;;;;17.50;4.55;;;;;;;;;;4991103;28;20041;-70
2023/03/22 12:28:59;;;;;;;12.50;3.90;;;;;;;;;;4990485;28;20530;-67
2023/03/22 12:31:34;;;;;;;20.73;4.75;;;;;;;;;;4988353;28;20529;-68
2023/03/22 12:34:03;;;;;;;16.75;5.18;;;;;;;;;;4976283;28;20037;-70
2023/03/22 12:36:33;;;;;;;15.35;4.97;;;;;;;;;;4992609;28;20384;-70
2023/03/22 12:39:00;;;;;;;19.55;8.05;;;;;;;;;;4991970;28;20042;-71
2023/03/22 12:41:46;;;;;;;20.98;5.25;;;;;;;;;;5008683;28;20294;-70
2023/03/22 12:44:30;;;;;;;15.93;4.43;;;;;;;;;;4992137;28;20474;-69
2023/03/22 12:46:57;;;;;;;21.45;4.60;;;;;;;;;;4989817;28;20164;-71
2023/03/22 12:49:22;;;;;;;18.88;4.88;;;;;;;;;;4992336;28;20190;-69
2023/03/22 12:51:50;;;;;;;19.10;4.80;;;;;;;;;;4970071;28;20057;-70
2023/03/22 12:54:17;;;;;;;18.40;4.47;;;;;;;;;;4986787;28;20413;-71
2023/03/22 12:56:45;;;;;;;17.23;4.55;;;;;;;;;;4993612;28;20052;-70
2023/03/22 12:59:18;;;;;;;14.68;4.22;;;;;;;;;;4990252;28;20042;-71
2023/03/22 13:01:47;;;;;;;19.98;4.30;;;;;;;;;;4980658;28;20505;-70
2023/03/22 13:04:24;;;;;;;21.60;4.53;;;;;;;;;;4994180;28;20068;-69
2023/03/22 13:06:50;;;;;;;20.98;4.55;;;;;;;;;;4994314;28;20328;-69
2023/03/22 13:09:20;;;;;;;19.67;4.95;;;;;;;;;;4995469;28;20068;-69
2023/03/22 13:11:46;;;;;;;17.63;4.63;;;;;;;;;;4996017;28;20046;-68
2023/03/22 13:14:31;;;;;;;24.55;5.30;;;;;;;;;;4972237;28;20072;-68
2023/03/22 13:16:58;;;;;;;20.45;4.72;;;;;;;;;;4995421;28;20038;-71
2023/03/22 13:19:34;;;;;;;15.25;4.50;;;;;;;;;;4995659;28;20125;-68
2023/03/22 13:22:32;;;;;;;19.30;4.93;;;;;;;;;;4980077;28;20044;-70
2023/03/22 13:25:27;;;;;;;21.35;5.05;;;;;;;;;;4949867;28;20161;-69
2023/03/22 13:27:57;;;;;;;16.40;4.07;;;;;;;;;;4986841;28;20553;-69
2023/03/22 13:30:25;;;;;;;19.52;5.15;;;;;;;;;;4979309;28;20206;-69
2023/03/22 13:32:53;;;;;;;15.75;4.55;;;;;;;;;;4996373;28;20038;-69
2023/03/22 13:35:27;;;;;;;22.02;4.13;;;;;;;;;;4997003;28;20531;-69
2023/03/22 13:37:53;;;;;;;19.08;4.95;;;;;;;;;;4994578;28;20029;-69
2023/03/22 13:40:45;;;;;;;21.30;4.93;;;;;;;;;;4982995;28;20087;-67
2023/03/22 13:43:16;;;;;;;14.50;5.10;;;;;;;;;;4995475;28;20268;-69
2023/03/22 13:46:00;;;;;;;18.48;4.78;;;;;;;;;;4996055;28;20026;-68
2023/03/22 13:48:30;;;;;;;16.73;5.00;;;;;;;;;;4999307;28;20161;-69
2023/03/22 13:50:57;;;;;;;20.20;4.78;;;;;;;;;;4998616;28;20042;-70
2023/03/22 13:53:32;;;;;;;16.88;4.78;;;;;;;;;;4990412;28;20037;-70
2023/03/22 13:55:59;;;;;;;17.65;5.65;;;;;;;;;;4997641;28;20049;-70
2023/03/22 13:58:35;;;;;;;21.83;5.85;;;;;;;;;;4990957;28;20041;-70
2023/03/22 14:01:05;;;;;;;16.73;4.20;;;;;;;;;;4996702;28;20045;-68
2023/03/22 14:03:35;;;;;;;22.73;4.70;;;;;;;;;;4996272;28;20060;-68
2023/03/22 14:06:04;;;;;;;16.42;4.20;;;;;;;;;;4996525;28;20069;-69
2023/03/22 14:08:31;;;;;;;24.60;5.85;;;;;;;;;;4995544;28;20202;-69
2023/03/22 14:11:02;;;;;;;18.77;5.40;;;;;;;;;;4997417;28;20069;-70
2023/03/22 14:13:30;;;;;;;16.13;5.05;;;;;;;;;;4996880;28;20080;-69
2023/03/22 14:15:57;;;;;;;16.77;6.38;;;;;;;;;;4996995;28;20097;-71
2023/03/22 14:18:25;;;;;;;22.30;6.10;;;;;;;;;;4996644;28;20037;-70
2023/03/22 14:20:53;;;;;;;15.07;6.07;;;;;;;;;;4998180;28;20710;-69
2023/03/22 14:23:45;;;;;;;19.75;6.88;;;;;;;;;;4995606;28;20045;-68
2023/03/22 14:26:16;;;;;;;16.65;5.63;;;;;;;;;;4995773;28;20107;-70
2023/03/22 14:28:41;;;;;;;16.25;6.13;;;;;;;;;;4996963;28;20041;-70
2023/03/22 14:31:38;;;;;;;18.50;5.25;;;;;;;;;;4998927;28;20176;-70
2023/03/22 14:34:05;;;;;;;16.95;5.65;;;;;;;;;;4976436;28;20037;-69
2023/03/22 14:36:36;;;;;;;20.17;6.15;;;;;;;;;;4998720;28;20124;-70
2023/03/22 14:39:05;;;;;;;16.00;6.00;;;;;;;;;;4996833;28;20605;-71
2023/03/22 14:41:30;;;;;;;18.75;6.28;;;;;;;;;;4995217;28;20041;-70